sensor_id;sensor_type;location;lat;lon;timestamp;P1;durP1;ratioP1;P2;durP2;ratioP2
5052;SDS011;2545;50.892;5.740;2023-04-16T00:00:35;11.03;;;3.80;;
5052;SDS011;2545;50.892;5.740;2023-04-16T00:03:01;7.93;;;4.10;;
5052;SDS011;2545;50.892;5.740;2023-04-16T00:05:26;11.77;;;3.70;;
5052;SDS011;2545;50.892;5.740;2023-04-16T00:07:51;7.27;;;3.60;;
5052;SDS011;2545;50.892;5.740;2023-04-16T00:10:17;8.43;;;4.47;;
5052;SDS011;2545;50.892;5.740;2023-04-16T00:12:42;13.00;;;3.20;;
5052;SDS011;2545;50.892;5.740;2023-04-16T00:15:08;6.17;;;3.50;;
5052;SDS011;2545;50.892;5.740;2023-04-16T00:17:33;6.83;;;3.60;;
5052;SDS011;2545;50.892;5.740;2023-04-16T00:19:59;5.83;;;3.87;;
5052;SDS011;2545;50.892;5.740;2023-04-16T00:22:24;7.50;;;3.43;;
5052;SDS011;2545;50.892;5.740;2023-04-16T00:24:49;9.63;;;4.20;;
5052;SDS011;2545;50.892;5.740;2023-04-16T00:27:15;8.20;;;3.80;;
5052;SDS011;2545;50.892;5.740;2023-04-16T00:29:40;7.57;;;4.13;;
5052;SDS011;2545;50.892;5.740;2023-04-16T00:32:05;9.50;;;3.80;;
5052;SDS011;2545;50.892;5.740;2023-04-16T00:34:31;11.33;;;4.20;;
5052;SDS011;2545;50.892;5.740;2023-04-16T00:36:56;7.67;;;3.57;;
5052;SDS011;2545;50.892;5.740;2023-04-16T00:39:22;4.00;;;3.40;;
5052;SDS011;2545;50.892;5.740;2023-04-16T00:41:47;5.93;;;4.27;;
5052;SDS011;2545;50.892;5.740;2023-04-16T00:44:13;8.87;;;4.63;;
5052;SDS011;2545;50.892;5.740;2023-04-16T00:46:38;10.80;;;4.37;;
5052;SDS011;2545;50.892;5.740;2023-04-16T00:49:05;16.33;;;4.37;;
5052;SDS011;2545;50.892;5.740;2023-04-16T00:51:31;11.17;;;4.20;;
5052;SDS011;2545;50.892;5.740;2023-04-16T00:53:56;11.33;;;5.30;;
5052;SDS011;2545;50.892;5.740;2023-04-16T00:56:22;7.50;;;4.53;;
5052;SDS011;2545;50.892;5.740;2023-04-16T00:58:48;6.67;;;4.57;;
5052;SDS011;2545;50.892;5.740;2023-04-16T01:01:13;9.57;;;4.70;;
5052;SDS011;2545;50.892;5.740;2023-04-16T01:03:42;10.20;;;5.40;;
5052;SDS011;2545;50.892;5.740;2023-04-16T01:06:10;7.63;;;5.53;;
5052;SDS011;2545;50.892;5.740;2023-04-16T01:08:36;9.27;;;4.77;;
5052;SDS011;2545;50.892;5.740;2023-04-16T01:11:02;9.50;;;5.33;;
5052;SDS011;2545;50.892;5.740;2023-04-16T01:13:28;10.13;;;5.10;;
5052;SDS011;2545;50.892;5.740;2023-04-16T01:15:53;7.00;;;5.10;;
5052;SDS011;2545;50.892;5.740;2023-04-16T01:18:20;9.00;;;5.17;;
5052;SDS011;2545;50.892;5.740;2023-04-16T01:20:46;12.33;;;6.07;;
5052;SDS011;2545;50.892;5.740;2023-04-16T01:23:12;12.87;;;5.77;;
5052;SDS011;2545;50.892;5.740;2023-04-16T01:25:39;11.93;;;5.67;;
5052;SDS011;2545;50.892;5.740;2023-04-16T01:28:04;10.40;;;5.00;;
5052;SDS011;2545;50.892;5.740;2023-04-16T01:30:30;13.33;;;5.60;;
5052;SDS011;2545;50.892;5.740;2023-04-16T01:32:56;6.83;;;6.10;;
5052;SDS011;2545;50.892;5.740;2023-04-16T01:35:22;15.10;;;6.23;;
5052;SDS011;2545;50.892;5.740;2023-04-16T01:37:48;12.83;;;5.70;;
5052;SDS011;2545;50.892;5.740;2023-04-16T01:40:14;16.73;;;6.00;;
5052;SDS011;2545;50.892;5.740;2023-04-16T01:42:39;19.40;;;6.17;;
5052;SDS011;2545;50.892;5.740;2023-04-16T01:45:05;12.53;;;6.33;;
5052;SDS011;2545;50.892;5.740;2023-04-16T01:47:31;9.93;;;6.10;;
5052;SDS011;2545;50.892;5.740;2023-04-16T01:49:56;14.60;;;5.00;;
5052;SDS011;2545;50.892;5.740;2023-04-16T01:52:23;8.73;;;6.33;;
5052;SDS011;2545;50.892;5.740;2023-04-16T01:54:48;12.87;;;6.10;;
5052;SDS011;2545;50.892;5.740;2023-04-16T01:57:14;14.13;;;6.30;;
5052;SDS011;2545;50.892;5.740;2023-04-16T01:59:39;10.50;;;6.77;;
5052;SDS011;2545;50.892;5.740;2023-04-16T02:02:08;18.50;;;6.43;;
5052;SDS011;2545;50.892;5.740;2023-04-16T02:04:38;18.33;;;7.13;;
5052;SDS011;2545;50.892;5.740;2023-04-16T02:07:04;11.37;;;6.50;;
5052;SDS011;2545;50.892;5.740;2023-04-16T02:09:33;14.50;;;6.77;;
5052;SDS011;2545;50.892;5.740;2023-04-16T02:11:59;11.53;;;6.73;;
5052;SDS011;2545;50.892;5.740;2023-04-16T02:14:26;14.33;;;6.57;;
5052;SDS011;2545;50.892;5.740;2023-04-16T02:16:51;15.87;;;6.80;;
5052;SDS011;2545;50.892;5.740;2023-04-16T02:19:16;10.77;;;7.10;;
5052;SDS011;2545;50.892;5.740;2023-04-16T02:21:41;14.57;;;6.53;;
5052;SDS011;2545;50.892;5.740;2023-04-16T02:24:07;10.30;;;6.67;;
5052;SDS011;2545;50.892;5.740;2023-04-16T02:26:32;12.10;;;6.93;;
5052;SDS011;2545;50.892;5.740;2023-04-16T02:28:57;16.90;;;7.00;;
5052;SDS011;2545;50.892;5.740;2023-04-16T02:31:23;12.43;;;7.83;;
5052;SDS011;2545;50.892;5.740;2023-04-16T02:33:48;10.67;;;6.43;;
5052;SDS011;2545;50.892;5.740;2023-04-16T02:36:13;19.70;;;7.10;;
5052;SDS011;2545;50.892;5.740;2023-04-16T02:38:39;14.13;;;7.43;;
5052;SDS011;2545;50.892;5.740;2023-04-16T02:41:04;20.07;;;6.90;;
5052;SDS011;2545;50.892;5.740;2023-04-16T02:43:30;12.23;;;7.20;;
5052;SDS011;2545;50.892;5.740;2023-04-16T02:45:55;24.83;;;7.77;;
5052;SDS011;2545;50.892;5.740;2023-04-16T02:48:20;11.33;;;7.33;;
5052;SDS011;2545;50.892;5.740;2023-04-16T02:50:46;15.83;;;7.10;;
5052;SDS011;2545;50.892;5.740;2023-04-16T02:53:11;13.50;;;7.97;;
5052;SDS011;2545;50.892;5.740;2023-04-16T02:55:36;12.90;;;8.13;;
5052;SDS011;2545;50.892;5.740;2023-04-16T02:58:02;11.83;;;7.03;;
5052;SDS011;2545;50.892;5.740;2023-04-16T03:00:27;20.63;;;9.77;;
5052;SDS011;2545;50.892;5.740;2023-04-16T03:02:52;25.97;;;7.43;;
5052;SDS011;2545;50.892;5.740;2023-04-16T03:05:17;20.00;;;7.80;;
5052;SDS011;2545;50.892;5.740;2023-04-16T03:07:43;18.27;;;8.10;;
5052;SDS011;2545;50.892;5.740;2023-04-16T03:10:08;21.00;;;8.50;;
5052;SDS011;2545;50.892;5.740;2023-04-16T03:12:34;17.50;;;8.63;;
5052;SDS011;2545;50.892;5.740;2023-04-16T03:15:00;22.57;;;7.40;;
5052;SDS011;2545;50.892;5.740;2023-04-16T03:17:25;21.40;;;9.03;;
5052;SDS011;2545;50.892;5.740;2023-04-16T03:19:51;23.70;;;7.40;;
5052;SDS011;2545;50.892;5.740;2023-04-16T03:22:16;8.83;;;6.80;;
5052;SDS011;2545;50.892;5.740;2023-04-16T03:24:41;18.03;;;9.03;;
5052;SDS011;2545;50.892;5.740;2023-04-16T03:27:07;16.57;;;9.20;;
5052;SDS011;2545;50.892;5.740;2023-04-16T03:29:32;18.43;;;8.13;;
5052;SDS011;2545;50.892;5.740;2023-04-16T03:32:00;13.07;;;8.60;;
5052;SDS011;2545;50.892;5.740;2023-04-16T03:34:26;19.17;;;8.40;;
5052;SDS011;2545;50.892;5.740;2023-04-16T03:36:51;34.70;;;9.93;;
5052;SDS011;2545;50.892;5.740;2023-04-16T03:39:16;16.33;;;8.80;;
5052;SDS011;2545;50.892;5.740;2023-04-16T03:41:42;18.13;;;7.77;;
5052;SDS011;2545;50.892;5.740;2023-04-16T03:44:07;17.93;;;9.00;;
5052;SDS011;2545;50.892;5.740;2023-04-16T03:46:32;17.17;;;8.50;;
5052;SDS011;2545;50.892;5.740;2023-04-16T03:48:58;17.13;;;9.10;;
5052;SDS011;2545;50.892;5.740;2023-04-16T03:51:23;20.20;;;8.50;;
5052;SDS011;2545;50.892;5.740;2023-04-16T03:53:49;12.40;;;8.57;;
5052;SDS011;2545;50.892;5.740;2023-04-16T03:56:14;19.70;;;9.93;;
5052;SDS011;2545;50.892;5.740;2023-04-16T03:58:40;17.40;;;9.40;;
5052;SDS011;2545;50.892;5.740;2023-04-16T04:01:05;21.20;;;9.60;;
5052;SDS011;2545;50.892;5.740;2023-04-16T04:03:30;13.13;;;8.23;;
5052;SDS011;2545;50.892;5.740;2023-04-16T04:05:56;15.87;;;9.20;;
5052;SDS011;2545;50.892;5.740;2023-04-16T04:08:21;18.37;;;8.53;;
5052;SDS011;2545;50.892;5.740;2023-04-16T04:10:46;20.13;;;9.00;;
5052;SDS011;2545;50.892;5.740;2023-04-16T04:13:12;23.47;;;9.70;;
5052;SDS011;2545;50.892;5.740;2023-04-16T04:15:37;30.87;;;10.73;;
5052;SDS011;2545;50.892;5.740;2023-04-16T04:18:02;20.30;;;10.00;;
5052;SDS011;2545;50.892;5.740;2023-04-16T04:20:27;14.23;;;9.27;;
5052;SDS011;2545;50.892;5.740;2023-04-16T04:22:53;15.03;;;9.37;;
5052;SDS011;2545;50.892;5.740;2023-04-16T04:25:18;14.73;;;8.37;;
5052;SDS011;2545;50.892;5.740;2023-04-16T04:27:43;16.60;;;10.07;;
5052;SDS011;2545;50.892;5.740;2023-04-16T04:30:09;17.53;;;9.43;;
5052;SDS011;2545;50.892;5.740;2023-04-16T04:32:34;21.77;;;10.93;;
5052;SDS011;2545;50.892;5.740;2023-04-16T04:35:00;19.60;;;10.33;;
5052;SDS011;2545;50.892;5.740;2023-04-16T04:37:27;22.87;;;10.27;;
5052;SDS011;2545;50.892;5.740;2023-04-16T04:39:52;18.23;;;10.00;;
5052;SDS011;2545;50.892;5.740;2023-04-16T04:42:18;17.70;;;9.83;;
5052;SDS011;2545;50.892;5.740;2023-04-16T04:44:45;18.17;;;10.60;;
5052;SDS011;2545;50.892;5.740;2023-04-16T04:47:10;15.13;;;9.60;;
5052;SDS011;2545;50.892;5.740;2023-04-16T04:49:36;19.50;;;11.43;;
5052;SDS011;2545;50.892;5.740;2023-04-16T04:52:01;27.43;;;10.67;;
5052;SDS011;2545;50.892;5.740;2023-04-16T04:54:27;23.17;;;10.80;;
5052;SDS011;2545;50.892;5.740;2023-04-16T04:56:53;18.07;;;10.20;;
5052;SDS011;2545;50.892;5.740;2023-04-16T04:59:19;21.37;;;11.03;;
5052;SDS011;2545;50.892;5.740;2023-04-16T05:01:45;16.53;;;9.90;;
5052;SDS011;2545;50.892;5.740;2023-04-16T05:04:10;15.30;;;10.17;;
5052;SDS011;2545;50.892;5.740;2023-04-16T05:06:36;21.07;;;11.00;;
5052;SDS011;2545;50.892;5.740;2023-04-16T05:09:01;24.63;;;11.87;;
5052;SDS011;2545;50.892;5.740;2023-04-16T05:11:27;16.20;;;10.17;;
5052;SDS011;2545;50.892;5.740;2023-04-16T05:13:53;19.70;;;10.30;;
5052;SDS011;2545;50.892;5.740;2023-04-16T05:16:18;17.07;;;9.63;;
5052;SDS011;2545;50.892;5.740;2023-04-16T05:18:44;21.70;;;11.00;;
5052;SDS011;2545;50.892;5.740;2023-04-16T05:21:09;23.70;;;11.50;;
5052;SDS011;2545;50.892;5.740;2023-04-16T05:23:34;17.43;;;10.27;;
5052;SDS011;2545;50.892;5.740;2023-04-16T05:26:00;19.70;;;10.67;;
5052;SDS011;2545;50.892;5.740;2023-04-16T05:28:25;18.07;;;9.63;;
5052;SDS011;2545;50.892;5.740;2023-04-16T05:30:50;22.63;;;10.60;;
5052;SDS011;2545;50.892;5.740;2023-04-16T05:33:15;20.10;;;10.80;;
5052;SDS011;2545;50.892;5.740;2023-04-16T05:35:41;18.37;;;10.40;;
5052;SDS011;2545;50.892;5.740;2023-04-16T05:38:06;18.60;;;11.77;;
5052;SDS011;2545;50.892;5.740;2023-04-16T05:40:32;18.83;;;10.90;;
5052;SDS011;2545;50.892;5.740;2023-04-16T05:42:57;21.20;;;12.33;;
5052;SDS011;2545;50.892;5.740;2023-04-16T05:45:22;27.97;;;13.37;;
5052;SDS011;2545;50.892;5.740;2023-04-16T05:47:48;21.90;;;11.60;;
5052;SDS011;2545;50.892;5.740;2023-04-16T05:50:13;30.23;;;11.50;;
5052;SDS011;2545;50.892;5.740;2023-04-16T05:52:38;24.30;;;12.77;;
5052;SDS011;2545;50.892;5.740;2023-04-16T05:55:04;27.70;;;12.60;;
5052;SDS011;2545;50.892;5.740;2023-04-16T05:57:30;24.73;;;12.70;;
5052;SDS011;2545;50.892;5.740;2023-04-16T05:59:55;22.17;;;11.27;;
5052;SDS011;2545;50.892;5.740;2023-04-16T06:02:20;23.50;;;12.63;;
5052;SDS011;2545;50.892;5.740;2023-04-16T06:04:46;34.90;;;12.60;;
5052;SDS011;2545;50.892;5.740;2023-04-16T06:07:11;27.17;;;12.93;;
5052;SDS011;2545;50.892;5.740;2023-04-16T06:09:37;31.40;;;13.90;;
5052;SDS011;2545;50.892;5.740;2023-04-16T06:12:02;21.43;;;12.70;;
5052;SDS011;2545;50.892;5.740;2023-04-16T06:14:28;24.93;;;14.47;;
5052;SDS011;2545;50.892;5.740;2023-04-16T06:16:53;30.67;;;14.50;;
5052;SDS011;2545;50.892;5.740;2023-04-16T06:19:18;35.90;;;14.90;;
5052;SDS011;2545;50.892;5.740;2023-04-16T06:21:43;28.20;;;15.03;;
5052;SDS011;2545;50.892;5.740;2023-04-16T06:24:09;26.67;;;15.83;;
5052;SDS011;2545;50.892;5.740;2023-04-16T06:26:34;32.27;;;15.00;;
5052;SDS011;2545;50.892;5.740;2023-04-16T06:29:00;26.83;;;15.03;;
5052;SDS011;2545;50.892;5.740;2023-04-16T06:31:25;31.83;;;15.80;;
5052;SDS011;2545;50.892;5.740;2023-04-16T06:33:50;26.77;;;15.70;;
5052;SDS011;2545;50.892;5.740;2023-04-16T06:36:16;31.90;;;15.40;;
5052;SDS011;2545;50.892;5.740;2023-04-16T06:38:41;34.13;;;14.70;;
5052;SDS011;2545;50.892;5.740;2023-04-16T06:41:07;33.63;;;14.73;;
5052;SDS011;2545;50.892;5.740;2023-04-16T06:43:32;22.00;;;14.80;;
5052;SDS011;2545;50.892;5.740;2023-04-16T06:45:58;30.43;;;15.13;;
5052;SDS011;2545;50.892;5.740;2023-04-16T06:48:23;29.90;;;15.40;;
5052;SDS011;2545;50.892;5.740;2023-04-16T06:50:49;30.33;;;14.87;;
5052;SDS011;2545;50.892;5.740;2023-04-16T06:53:14;25.57;;;13.90;;
5052;SDS011;2545;50.892;5.740;2023-04-16T06:55:40;46.70;;;17.67;;
5052;SDS011;2545;50.892;5.740;2023-04-16T06:58:05;42.37;;;17.27;;
5052;SDS011;2545;50.892;5.740;2023-04-16T07:00:30;28.40;;;14.67;;
5052;SDS011;2545;50.892;5.740;2023-04-16T07:02:56;26.80;;;13.33;;
5052;SDS011;2545;50.892;5.740;2023-04-16T07:05:21;26.23;;;15.60;;
5052;SDS011;2545;50.892;5.740;2023-04-16T07:07:46;29.13;;;13.80;;
5052;SDS011;2545;50.892;5.740;2023-04-16T07:10:12;27.60;;;14.23;;
5052;SDS011;2545;50.892;5.740;2023-04-16T07:12:37;29.97;;;14.03;;
5052;SDS011;2545;50.892;5.740;2023-04-16T07:15:03;23.07;;;13.93;;
5052;SDS011;2545;50.892;5.740;2023-04-16T07:17:29;31.33;;;15.90;;
5052;SDS011;2545;50.892;5.740;2023-04-16T07:19:54;26.90;;;14.63;;
5052;SDS011;2545;50.892;5.740;2023-04-16T07:22:20;28.03;;;14.20;;
5052;SDS011;2545;50.892;5.740;2023-04-16T07:24:45;26.27;;;14.70;;
5052;SDS011;2545;50.892;5.740;2023-04-16T07:27:10;26.47;;;14.47;;
5052;SDS011;2545;50.892;5.740;2023-04-16T07:29:36;24.73;;;13.40;;
5052;SDS011;2545;50.892;5.740;2023-04-16T07:32:01;24.00;;;13.00;;
5052;SDS011;2545;50.892;5.740;2023-04-16T07:34:26;26.17;;;13.73;;
5052;SDS011;2545;50.892;5.740;2023-04-16T07:36:51;24.73;;;13.87;;
5052;SDS011;2545;50.892;5.740;2023-04-16T07:39:17;28.90;;;14.70;;
5052;SDS011;2545;50.892;5.740;2023-04-16T07:41:42;24.80;;;13.00;;
5052;SDS011;2545;50.892;5.740;2023-04-16T07:44:07;27.27;;;14.30;;
5052;SDS011;2545;50.892;5.740;2023-04-16T07:46:33;30.40;;;13.87;;
5052;SDS011;2545;50.892;5.740;2023-04-16T07:48:58;26.70;;;14.63;;
5052;SDS011;2545;50.892;5.740;2023-04-16T07:51:24;23.13;;;13.43;;
5052;SDS011;2545;50.892;5.740;2023-04-16T07:53:50;25.40;;;15.63;;
5052;SDS011;2545;50.892;5.740;2023-04-16T07:56:15;20.57;;;13.97;;
5052;SDS011;2545;50.892;5.740;2023-04-16T07:58:40;24.10;;;12.83;;
5052;SDS011;2545;50.892;5.740;2023-04-16T08:01:05;23.97;;;12.97;;
5052;SDS011;2545;50.892;5.740;2023-04-16T08:03:31;26.67;;;14.33;;
5052;SDS011;2545;50.892;5.740;2023-04-16T08:05:56;28.27;;;13.57;;
5052;SDS011;2545;50.892;5.740;2023-04-16T08:08:22;25.80;;;13.70;;
5052;SDS011;2545;50.892;5.740;2023-04-16T08:10:47;21.40;;;12.23;;
5052;SDS011;2545;50.892;5.740;2023-04-16T08:13:13;34.03;;;15.17;;
5052;SDS011;2545;50.892;5.740;2023-04-16T08:15:38;25.63;;;13.27;;
5052;SDS011;2545;50.892;5.740;2023-04-16T08:18:04;24.60;;;13.43;;
5052;SDS011;2545;50.892;5.740;2023-04-16T08:20:30;22.97;;;13.33;;
5052;SDS011;2545;50.892;5.740;2023-04-16T08:22:56;28.63;;;12.80;;
5052;SDS011;2545;50.892;5.740;2023-04-16T08:25:22;25.90;;;13.03;;
5052;SDS011;2545;50.892;5.740;2023-04-16T08:27:48;22.83;;;12.37;;
5052;SDS011;2545;50.892;5.740;2023-04-16T08:30:14;26.90;;;13.50;;
5052;SDS011;2545;50.892;5.740;2023-04-16T08:32:41;22.93;;;13.20;;
5052;SDS011;2545;50.892;5.740;2023-04-16T08:35:07;22.50;;;14.03;;
5052;SDS011;2545;50.892;5.740;2023-04-16T08:37:32;23.93;;;12.97;;
5052;SDS011;2545;50.892;5.740;2023-04-16T08:39:58;18.90;;;11.90;;
5052;SDS011;2545;50.892;5.740;2023-04-16T08:42:30;27.40;;;12.57;;
5052;SDS011;2545;50.892;5.740;2023-04-16T08:45:07;24.33;;;13.27;;
5052;SDS011;2545;50.892;5.740;2023-04-16T08:47:34;22.00;;;12.43;;
5052;SDS011;2545;50.892;5.740;2023-04-16T08:50:03;22.40;;;12.47;;
5052;SDS011;2545;50.892;5.740;2023-04-16T08:52:29;30.87;;;13.57;;
5052;SDS011;2545;50.892;5.740;2023-04-16T08:54:57;22.30;;;11.37;;
5052;SDS011;2545;50.892;5.740;2023-04-16T08:57:37;22.10;;;13.13;;
5052;SDS011;2545;50.892;5.740;2023-04-16T09:00:06;26.47;;;13.73;;
5052;SDS011;2545;50.892;5.740;2023-04-16T09:02:33;21.07;;;13.20;;
5052;SDS011;2545;50.892;5.740;2023-04-16T09:04:58;28.77;;;11.80;;
5052;SDS011;2545;50.892;5.740;2023-04-16T09:07:25;24.33;;;13.80;;
5052;SDS011;2545;50.892;5.740;2023-04-16T09:09:52;26.40;;;13.50;;
5052;SDS011;2545;50.892;5.740;2023-04-16T09:12:18;22.63;;;12.97;;
5052;SDS011;2545;50.892;5.740;2023-04-16T09:14:48;27.83;;;12.87;;
5052;SDS011;2545;50.892;5.740;2023-04-16T09:17:14;21.87;;;13.00;;
5052;SDS011;2545;50.892;5.740;2023-04-16T09:19:40;22.70;;;12.40;;
5052;SDS011;2545;50.892;5.740;2023-04-16T09:22:06;19.73;;;12.47;;
5052;SDS011;2545;50.892;5.740;2023-04-16T09:24:32;21.60;;;12.93;;
5052;SDS011;2545;50.892;5.740;2023-04-16T09:26:58;19.50;;;12.10;;
5052;SDS011;2545;50.892;5.740;2023-04-16T09:29:34;21.40;;;14.07;;
5052;SDS011;2545;50.892;5.740;2023-04-16T09:32:08;26.90;;;11.93;;
5052;SDS011;2545;50.892;5.740;2023-04-16T09:37:27;24.40;;;13.33;;
5052;SDS011;2545;50.892;5.740;2023-04-16T09:40:00;22.97;;;12.07;;
5052;SDS011;2545;50.892;5.740;2023-04-16T09:42:31;23.73;;;12.93;;
5052;SDS011;2545;50.892;5.740;2023-04-16T09:44:58;20.47;;;11.80;;
5052;SDS011;2545;50.892;5.740;2023-04-16T09:50:08;23.70;;;11.80;;
5052;SDS011;2545;50.892;5.740;2023-04-16T09:52:38;25.63;;;13.07;;
5052;SDS011;2545;50.892;5.740;2023-04-16T09:55:03;16.33;;;10.83;;
5052;SDS011;2545;50.892;5.740;2023-04-16T09:57:29;25.50;;;11.60;;
5052;SDS011;2545;50.892;5.740;2023-04-16T09:59:59;19.87;;;11.87;;
5052;SDS011;2545;50.892;5.740;2023-04-16T10:02:27;21.33;;;12.10;;
5052;SDS011;2545;50.892;5.740;2023-04-16T10:04:53;18.13;;;11.60;;
5052;SDS011;2545;50.892;5.740;2023-04-16T10:07:19;20.73;;;11.43;;
5052;SDS011;2545;50.892;5.740;2023-04-16T10:09:48;24.63;;;11.53;;
5052;SDS011;2545;50.892;5.740;2023-04-16T10:12:14;20.87;;;11.50;;
5052;SDS011;2545;50.892;5.740;2023-04-16T10:14:40;18.87;;;11.63;;
5052;SDS011;2545;50.892;5.740;2023-04-16T10:17:06;21.03;;;11.80;;
5052;SDS011;2545;50.892;5.740;2023-04-16T10:19:33;18.83;;;10.90;;
5052;SDS011;2545;50.892;5.740;2023-04-16T10:21:59;19.77;;;12.07;;
5052;SDS011;2545;50.892;5.740;2023-04-16T10:24:25;19.17;;;10.17;;
5052;SDS011;2545;50.892;5.740;2023-04-16T10:26:52;18.70;;;11.50;;
5052;SDS011;2545;50.892;5.740;2023-04-16T10:29:19;16.97;;;10.23;;
5052;SDS011;2545;50.892;5.740;2023-04-16T10:31:46;24.97;;;12.37;;
5052;SDS011;2545;50.892;5.740;2023-04-16T10:34:12;20.80;;;11.10;;
5052;SDS011;2545;50.892;5.740;2023-04-16T10:36:38;24.27;;;11.13;;
5052;SDS011;2545;50.892;5.740;2023-04-16T10:39:08;18.50;;;11.33;;
5052;SDS011;2545;50.892;5.740;2023-04-16T10:41:35;22.03;;;11.33;;
5052;SDS011;2545;50.892;5.740;2023-04-16T10:44:10;16.57;;;11.07;;
5052;SDS011;2545;50.892;5.740;2023-04-16T10:46:39;16.50;;;10.37;;
5052;SDS011;2545;50.892;5.740;2023-04-16T10:51:39;29.67;;;13.97;;
5052;SDS011;2545;50.892;5.740;2023-04-16T10:56:34;19.13;;;11.17;;
5052;SDS011;2545;50.892;5.740;2023-04-16T10:59:03;21.90;;;12.97;;
5052;SDS011;2545;50.892;5.740;2023-04-16T11:01:30;24.43;;;12.53;;
5052;SDS011;2545;50.892;5.740;2023-04-16T11:04:00;20.13;;;10.70;;
5052;SDS011;2545;50.892;5.740;2023-04-16T11:12:16;19.77;;;11.20;;
5052;SDS011;2545;50.892;5.740;2023-04-16T11:14:48;20.60;;;12.13;;
5052;SDS011;2545;50.892;5.740;2023-04-16T11:17:18;20.00;;;10.90;;
5052;SDS011;2545;50.892;5.740;2023-04-16T11:19:44;29.23;;;13.37;;
5052;SDS011;2545;50.892;5.740;2023-04-16T11:22:13;28.53;;;12.57;;
5052;SDS011;2545;50.892;5.740;2023-04-16T11:24:41;32.03;;;12.40;;
5052;SDS011;2545;50.892;5.740;2023-04-16T11:27:11;20.30;;;11.90;;
5052;SDS011;2545;50.892;5.740;2023-04-16T11:29:40;25.50;;;11.60;;
5052;SDS011;2545;50.892;5.740;2023-04-16T11:32:06;28.23;;;12.30;;
5052;SDS011;2545;50.892;5.740;2023-04-16T11:34:31;27.27;;;12.70;;
5052;SDS011;2545;50.892;5.740;2023-04-16T11:36:57;28.80;;;13.00;;
5052;SDS011;2545;50.892;5.740;2023-04-16T11:39:22;18.47;;;11.43;;
5052;SDS011;2545;50.892;5.740;2023-04-16T11:41:48;23.40;;;12.53;;
5052;SDS011;2545;50.892;5.740;2023-04-16T11:44:25;22.50;;;12.90;;
5052;SDS011;2545;50.892;5.740;2023-04-16T11:46:52;23.50;;;12.30;;
5052;SDS011;2545;50.892;5.740;2023-04-16T11:49:27;22.73;;;12.07;;
5052;SDS011;2545;50.892;5.740;2023-04-16T11:51:53;23.20;;;12.63;;
5052;SDS011;2545;50.892;5.740;2023-04-16T11:54:19;30.70;;;12.87;;
5052;SDS011;2545;50.892;5.740;2023-04-16T11:56:46;18.93;;;11.27;;
5052;SDS011;2545;50.892;5.740;2023-04-16T12:01:39;20.43;;;11.43;;
5052;SDS011;2545;50.892;5.740;2023-04-16T12:04:06;21.47;;;12.87;;
5052;SDS011;2545;50.892;5.740;2023-04-16T12:06:32;18.93;;;11.87;;
5052;SDS011;2545;50.892;5.740;2023-04-16T12:08:58;29.03;;;13.17;;
5052;SDS011;2545;50.892;5.740;2023-04-16T12:11:40;22.57;;;12.50;;
5052;SDS011;2545;50.892;5.740;2023-04-16T12:14:09;26.87;;;12.50;;
5052;SDS011;2545;50.892;5.740;2023-04-16T12:16:36;27.40;;;13.27;;
5052;SDS011;2545;50.892;5.740;2023-04-16T12:19:01;23.97;;;12.47;;
5052;SDS011;2545;50.892;5.740;2023-04-16T12:21:37;29.40;;;14.70;;
5052;SDS011;2545;50.892;5.740;2023-04-16T12:24:07;24.57;;;13.13;;
5052;SDS011;2545;50.892;5.740;2023-04-16T12:26:35;20.50;;;12.90;;
5052;SDS011;2545;50.892;5.740;2023-04-16T12:29:18;24.07;;;14.10;;
5052;SDS011;2545;50.892;5.740;2023-04-16T12:31:46;21.70;;;13.13;;
5052;SDS011;2545;50.892;5.740;2023-04-16T12:34:12;36.20;;;14.90;;
5052;SDS011;2545;50.892;5.740;2023-04-16T12:36:39;27.17;;;14.53;;
5052;SDS011;2545;50.892;5.740;2023-04-16T12:39:05;30.03;;;15.33;;
5052;SDS011;2545;50.892;5.740;2023-04-16T12:41:31;23.83;;;13.13;;
5052;SDS011;2545;50.892;5.740;2023-04-16T12:44:03;23.97;;;12.90;;
5052;SDS011;2545;50.892;5.740;2023-04-16T12:46:31;44.50;;;15.57;;
5052;SDS011;2545;50.892;5.740;2023-04-16T12:48:56;24.07;;;13.60;;
5052;SDS011;2545;50.892;5.740;2023-04-16T12:51:22;26.03;;;14.00;;
5052;SDS011;2545;50.892;5.740;2023-04-16T12:53:47;26.67;;;13.87;;
5052;SDS011;2545;50.892;5.740;2023-04-16T12:56:13;22.03;;;13.60;;
5052;SDS011;2545;50.892;5.740;2023-04-16T12:58:39;27.97;;;12.70;;
5052;SDS011;2545;50.892;5.740;2023-04-16T13:01:04;25.90;;;12.00;;
5052;SDS011;2545;50.892;5.740;2023-04-16T13:03:30;25.47;;;13.40;;
5052;SDS011;2545;50.892;5.740;2023-04-16T13:05:55;25.33;;;13.40;;
5052;SDS011;2545;50.892;5.740;2023-04-16T13:08:21;28.10;;;12.73;;
5052;SDS011;2545;50.892;5.740;2023-04-16T13:10:46;23.87;;;13.07;;
5052;SDS011;2545;50.892;5.740;2023-04-16T13:13:11;23.67;;;13.10;;
5052;SDS011;2545;50.892;5.740;2023-04-16T13:15:36;21.67;;;11.50;;
5052;SDS011;2545;50.892;5.740;2023-04-16T13:18:02;17.67;;;10.90;;
5052;SDS011;2545;50.892;5.740;2023-04-16T13:20:27;19.40;;;11.13;;
5052;SDS011;2545;50.892;5.740;2023-04-16T13:22:52;19.07;;;12.93;;
5052;SDS011;2545;50.892;5.740;2023-04-16T13:25:18;22.67;;;13.43;;
5052;SDS011;2545;50.892;5.740;2023-04-16T13:27:43;24.87;;;12.73;;
5052;SDS011;2545;50.892;5.740;2023-04-16T13:30:08;28.63;;;12.30;;
5052;SDS011;2545;50.892;5.740;2023-04-16T13:32:34;26.40;;;12.83;;
5052;SDS011;2545;50.892;5.740;2023-04-16T13:34:59;31.83;;;13.90;;
5052;SDS011;2545;50.892;5.740;2023-04-16T13:37:25;25.90;;;13.00;;
5052;SDS011;2545;50.892;5.740;2023-04-16T13:39:50;40.37;;;15.77;;
5052;SDS011;2545;50.892;5.740;2023-04-16T13:42:15;20.93;;;13.43;;
5052;SDS011;2545;50.892;5.740;2023-04-16T13:44:41;29.50;;;13.10;;
5052;SDS011;2545;50.892;5.740;2023-04-16T13:47:06;24.00;;;12.47;;
5052;SDS011;2545;50.892;5.740;2023-04-16T13:49:32;32.77;;;14.07;;
5052;SDS011;2545;50.892;5.740;2023-04-16T13:52:00;25.70;;;14.60;;
5052;SDS011;2545;50.892;5.740;2023-04-16T13:54:25;27.23;;;13.90;;
5052;SDS011;2545;50.892;5.740;2023-04-16T13:56:50;22.73;;;13.53;;
5052;SDS011;2545;50.892;5.740;2023-04-16T13:59:16;24.07;;;13.13;;
5052;SDS011;2545;50.892;5.740;2023-04-16T14:01:42;22.20;;;13.87;;
5052;SDS011;2545;50.892;5.740;2023-04-16T14:04:07;22.67;;;13.67;;
5052;SDS011;2545;50.892;5.740;2023-04-16T14:06:32;29.90;;;14.30;;
5052;SDS011;2545;50.892;5.740;2023-04-16T14:08:58;20.67;;;13.53;;
5052;SDS011;2545;50.892;5.740;2023-04-16T14:11:23;22.93;;;13.80;;
5052;SDS011;2545;50.892;5.740;2023-04-16T14:13:49;27.27;;;13.80;;
5052;SDS011;2545;50.892;5.740;2023-04-16T14:16:14;28.40;;;13.60;;
5052;SDS011;2545;50.892;5.740;2023-04-16T14:18:40;25.60;;;15.10;;
5052;SDS011;2545;50.892;5.740;2023-04-16T14:21:06;24.53;;;14.50;;
5052;SDS011;2545;50.892;5.740;2023-04-16T14:23:32;21.27;;;12.60;;
5052;SDS011;2545;50.892;5.740;2023-04-16T14:25:57;26.80;;;14.03;;
5052;SDS011;2545;50.892;5.740;2023-04-16T14:28:22;23.90;;;13.87;;
5052;SDS011;2545;50.892;5.740;2023-04-16T14:30:48;26.03;;;13.93;;
5052;SDS011;2545;50.892;5.740;2023-04-16T14:33:13;24.90;;;15.20;;
5052;SDS011;2545;50.892;5.740;2023-04-16T14:35:38;23.10;;;13.47;;
5052;SDS011;2545;50.892;5.740;2023-04-16T14:38:04;31.87;;;14.33;;
5052;SDS011;2545;50.892;5.740;2023-04-16T14:40:29;20.63;;;13.73;;
5052;SDS011;2545;50.892;5.740;2023-04-16T14:42:54;24.33;;;15.13;;
5052;SDS011;2545;50.892;5.740;2023-04-16T14:45:20;24.20;;;14.37;;
5052;SDS011;2545;50.892;5.740;2023-04-16T14:47:45;25.67;;;14.50;;
5052;SDS011;2545;50.892;5.740;2023-04-16T14:50:12;25.17;;;14.00;;
5052;SDS011;2545;50.892;5.740;2023-04-16T14:52:38;25.33;;;14.97;;
5052;SDS011;2545;50.892;5.740;2023-04-16T14:55:03;39.07;;;17.10;;
5052;SDS011;2545;50.892;5.740;2023-04-16T14:57:29;24.03;;;14.30;;
5052;SDS011;2545;50.892;5.740;2023-04-16T14:59:55;26.33;;;14.60;;
5052;SDS011;2545;50.892;5.740;2023-04-16T15:02:20;22.80;;;15.07;;
5052;SDS011;2545;50.892;5.740;2023-04-16T15:04:46;26.70;;;13.50;;